createdAt,value
2023-01-06T00:13:27.311Z,6.13
2023-01-06T00:28:33.870Z,7.30
2023-01-06T00:43:39.155Z,5.80
2023-01-06T00:58:42.973Z,5.40
2023-01-06T01:13:47.039Z,5.87
2023-01-06T01:28:51.437Z,5.00
2023-01-06T01:43:55.550Z,4.83
2023-01-06T01:59:01.569Z,5.37
2023-01-06T02:14:25.982Z,4.73
2023-01-06T02:29:39.224Z,3.40
2023-01-06T02:44:49.929Z,3.67
2023-01-06T03:00:11.862Z,4.10
2023-01-06T03:15:15.930Z,4.70
2023-01-06T03:30:20.434Z,3.43
2023-01-06T03:45:26.997Z,3.47
2023-01-06T04:00:37.732Z,3.67
2023-01-06T04:15:43.658Z,3.90
2023-01-06T04:30:48.133Z,4.10
2023-01-06T04:45:52.912Z,3.57
2023-01-06T05:01:00.602Z,3.53
2023-01-06T05:16:08.274Z,4.67
2023-01-06T05:31:12.213Z,3.40
2023-01-06T05:46:16.190Z,3.70
2023-01-06T06:01:24.420Z,3.90
2023-01-06T06:16:29.605Z,3.80
2023-01-06T06:31:33.929Z,3.40
2023-01-06T06:46:38.270Z,3.80
2023-01-06T07:01:42.858Z,3.17
2023-01-06T07:16:47.534Z,3.50
2023-01-06T07:31:51.759Z,3.23
2023-01-06T07:46:56.208Z,2.90
2023-01-06T08:02:00.865Z,3.33
2023-01-06T08:17:05.035Z,2.70
2023-01-06T08:32:10.787Z,2.70
2023-01-06T08:47:15.258Z,2.50
2023-01-06T09:02:19.625Z,2.00
2023-01-06T09:17:23.956Z,2.13
2023-01-06T09:32:28.746Z,2.10
2023-01-06T09:47:35.302Z,1.97
2023-01-06T10:02:41.393Z,1.93
2023-01-06T10:17:56.496Z,2.60
2023-01-06T10:33:00.822Z,2.10
2023-01-06T10:48:06.784Z,2.47
2023-01-06T11:03:31.960Z,2.60
2023-01-06T11:18:39.155Z,2.50
2023-01-06T11:33:51.743Z,2.43
2023-01-06T11:49:05.084Z,2.73
2023-01-06T12:04:09.238Z,2.40
2023-01-06T12:19:19.013Z,2.33
2023-01-06T12:34:55.496Z,2.73
2023-01-06T12:50:08.150Z,2.43
2023-01-06T13:05:22.216Z,2.97
2023-01-06T13:20:38.651Z,3.40
2023-01-06T13:35:51.358Z,3.27
2023-01-06T13:50:56.258Z,3.07
2023-01-06T14:06:02.010Z,3.10
2023-01-06T14:21:17.649Z,3.73
2023-01-06T14:36:22.214Z,4.47
2023-01-06T14:51:26.659Z,3.90
2023-01-06T15:06:31.320Z,4.07
2023-01-06T15:21:46.779Z,4.80
2023-01-06T15:36:53.080Z,4.40
2023-01-06T15:51:59.270Z,4.60
2023-01-06T16:07:24.678Z,4.70
2023-01-06T16:22:51.547Z,4.33
2023-01-06T16:37:57.181Z,4.10
2023-01-06T16:53:21.421Z,4.20
2023-01-06T17:08:28.699Z,4.77
2023-01-06T17:23:40.306Z,4.40
2023-01-06T17:38:45.505Z,4.37
2023-01-06T17:54:08.756Z,4.30
2023-01-06T18:09:16.831Z,7.77
2023-01-06T18:24:22.537Z,4.23
2023-01-06T18:39:28.915Z,4.90
2023-01-06T18:54:33.559Z,3.80
2023-01-06T19:09:40.508Z,5.00
2023-01-06T19:24:50.992Z,5.63
2023-01-06T19:39:57.601Z,4.53
2023-01-06T19:55:22.361Z,3.90
2023-01-06T20:10:26.525Z,4.97
2023-01-06T20:25:30.716Z,4.73
2023-01-06T20:40:35.115Z,4.70
2023-01-06T20:55:39.265Z,4.20
2023-01-06T21:10:44.845Z,3.80
2023-01-06T21:25:49.270Z,4.30
2023-01-06T21:40:55.221Z,3.73
2023-01-06T21:55:59.764Z,3.70
2023-01-06T22:11:05.495Z,3.40
2023-01-06T22:26:09.655Z,3.60
2023-01-06T22:41:13.881Z,3.40
2023-01-06T22:56:18.156Z,3.40
2023-01-06T23:11:24.021Z,3.17
2023-01-06T23:26:29.268Z,3.83
2023-01-06T23:41:34.775Z,2.83
2023-01-06T23:56:39.002Z,3.47
